Strategic Endeavor — 9V2493 — position and weather

sailwx.info

Track history (hours):
 
Tides and Currents Weather Stations Pressure Air Temp Water Temp Dewpoint Dewpoint Depression Visibility Wind Speed Wind Dir Waves Ship Positions

Strategic Endeavor

Last reported at 2017-Nov-17 19:26 UTC. Time now 2017-Nov-20 13:35 UTC.
Position N 11°14' W 074°47'.

Length 178 m; draft 8.6 m.

Type: Cargo ship. MMSI: 564180000.

Date/timePositionNaut miles runAvg speedWind from/ knotsBaromVisibWave heightAir tempDewpointWater temp
2017-Nov-17 19:26N 11°14' W 074°47'614.7
2017-Nov-17 19:00N 11°10' W 074°51'3 5.8
2017-Nov-17 18:30N 11°07' W 074°51'612.7
2017-Nov-17 18:00N 11°02' W 074°47'4 0.1
2017-Nov-16 03:21N 10°58' W 074°46'0 0.0
2017-Nov-15 19:42N 10°58' W 074°46'0 0.0
2017-Nov-15 10:39N 10°58' W 074°46'0 0.0
2017-Nov-15 10:27N 10°58' W 074°46'0 0.0
2017-Nov-14 21:54N 10°58' W 074°46'0 0.0
2017-Nov-14 21:24N 10°58' W 074°46'0 0.0
2017-Nov-14 20:54N 10°58' W 074°46'0 0.0
2017-Nov-14 20:30N 10°58' W 074°46'0 0.0
2017-Nov-14 20:00N 10°58' W 074°46'0 0.0
2017-Nov-14 19:30N 10°58' W 074°46'0 0.0
2017-Nov-14 19:00N 10°58' W 074°46'0 0.0
2017-Nov-14 18:30N 10°58' W 074°46'0 0.0
2017-Nov-14 18:00N 10°58' W 074°46'0 0.0
2017-Nov-14 17:30N 10°58' W 074°46'0 0.0
2017-Nov-14 17:00N 10°58' W 074°46'0 0.0
2017-Nov-14 16:30N 10°58' W 074°46'0 0.0
2017-Nov-14 16:00N 10°58' W 074°46'0 0.0
2017-Nov-14 15:30N 10°58' W 074°46'0 0.0
2017-Nov-14 15:00N 10°58' W 074°46'0 0.0
2017-Nov-14 14:30N 10°58' W 074°46'0 0.0
2017-Nov-14 14:00N 10°58' W 074°46'0 0.0
2017-Nov-14 13:30N 10°58' W 074°46'0 0.0
2017-Nov-14 13:00N 10°58' W 074°46'0 0.0
2017-Nov-14 12:30N 10°58' W 074°46'0 0.0
2017-Nov-14 12:00N 10°58' W 074°46'0 0.0
2017-Nov-14 11:30N 10°58' W 074°46'0 0.0
2017-Nov-14 11:00N 10°58' W 074°46'0 0.0
2017-Nov-14 10:30N 10°58' W 074°46'0 0.0
2017-Nov-14 10:00N 10°58' W 074°46'0 0.0
2017-Nov-14 09:30N 10°58' W 074°46'0 0.0
2017-Nov-14 08:06N 10°58' W 074°46'0 0.0
2017-Nov-14 08:00N 10°58' W 074°46'0 0.0
2017-Nov-14 07:30N 10°58' W 074°46'0 0.0
2017-Nov-14 07:00N 10°58' W 074°46'0 0.0
2017-Nov-14 06:30N 10°58' W 074°46'0 0.0
2017-Nov-14 06:00N 10°58' W 074°46'0 0.0
2017-Nov-14 05:30N 10°58' W 074°46'0 0.0
2017-Nov-14 05:00N 10°58' W 074°46'0 0.0
2017-Nov-14 04:30N 10°58' W 074°46'0 0.0
2017-Nov-14 04:00N 10°58' W 074°46'0 0.0
2017-Nov-14 03:30N 10°58' W 074°46'0 0.0
2017-Nov-14 03:00N 10°58' W 074°46'0 0.0
2017-Nov-14 02:30N 10°58' W 074°46'0 0.0
2017-Nov-14 02:00N 10°58' W 074°46'0 0.0
2017-Nov-14 01:30N 10°58' W 074°46'0 0.0
2017-Nov-14 01:00N 10°58' W 074°46'0 0.0
2017-Nov-14 00:30N 10°58' W 074°46'0 0.0
2017-Nov-14 00:00N 10°58' W 074°46'0 0.0
2017-Nov-13 23:30N 10°58' W 074°46'0 0.0
2017-Nov-13 23:00N 10°58' W 074°46'0 0.0
2017-Nov-13 22:30N 10°58' W 074°46'0 0.0
2017-Nov-13 22:00N 10°58' W 074°46'0 0.0
2017-Nov-13 02:00N 10°58' W 074°46'0 0.0
2017-Nov-13 01:30N 10°58' W 074°46'0 0.0
2017-Nov-13 01:00N 10°58' W 074°46'0 0.0
2017-Nov-13 00:30N 10°58' W 074°46'0 0.0
2017-Nov-13 00:00N 10°58' W 074°46'0 0.0
2017-Nov-12 23:30N 10°58' W 074°46'0 0.0
2017-Nov-12 23:00N 10°58' W 074°46'0 0.0
2017-Nov-12 22:30N 10°58' W 074°46'0 0.0
2017-Nov-12 22:00N 10°58' W 074°46'0 0.0
2017-Nov-12 21:30N 10°58' W 074°46'0 0.0
2017-Nov-12 21:00N 10°58' W 074°46'0 0.0
2017-Nov-12 20:27N 10°58' W 074°46'0 0.0
2017-Nov-12 20:00N 10°58' W 074°46'0 0.0
2017-Nov-12 19:30N 10°58' W 074°46'0 0.1
2017-Nov-12 19:00N 10°58' W 074°45'2 4.1
2017-Nov-12 18:30N 11°00' W 074°46'3 6.5
2017-Nov-12 18:00N 11°02' W 074°49'3 6.2
2017-Nov-12 17:30N 11°05' W 074°51'3 6.4
2017-Nov-12 17:00N 11°07' W 074°52'2 4.4
2017-Nov-12 16:30N 11°06' W 074°54'0 0.1
2017-Nov-12 15:58N 11°06' W 074°54'0 0.0
2017-Nov-12 15:28N 11°06' W 074°54'0 0.0
2017-Nov-12 14:55N 11°06' W 074°54'0 0.0
2017-Nov-12 14:28N 11°06' W 074°54'0 0.0
2017-Nov-12 13:58N 11°06' W 074°54'0 0.0
2017-Nov-12 13:28N 11°06' W 074°54'0 0.0
2017-Nov-12 12:58N 11°06' W 074°54'0 0.0
2017-Nov-12 12:25N 11°06' W 074°54'0 0.0
2017-Nov-12 11:58N 11°06' W 074°54'0 0.0
2017-Nov-11 23:01N 11°06' W 074°54'0 0.1
2017-Nov-11 22:52N 11°06' W 074°54'0 0.0
2017-Nov-11 22:28N 11°06' W 074°54'0 0.0
2017-Nov-11 19:55N 11°06' W 074°54'0 0.0
2017-Nov-11 19:28N 11°06' W 074°54'0 0.0
2017-Nov-11 18:58N 11°06' W 074°54'0 0.0
2017-Nov-11 18:28N 11°06' W 074°54'0 0.0
2017-Nov-11 17:55N 11°06' W 074°54'0 0.0
2017-Nov-11 17:28N 11°06' W 074°54'0 0.1
2017-Nov-11 16:58N 11°06' W 074°54'0 0.0
2017-Nov-11 16:22N 11°06' W 074°54'0 0.0
2017-Nov-11 15:43N 11°06' W 074°54'0 0.0
2017-Nov-11 13:40N 11°06' W 074°54'0 0.0
2017-Nov-11 13:28N 11°06' W 074°54'0 0.0
2017-Nov-11 12:58N 11°06' W 074°54'0 0.0
2017-Nov-11 12:28N 11°06' W 074°54'0 0.0
2017-Nov-10 23:10N 11°06' W 074°54'0 0.0
2017-Nov-10 22:58N 11°06' W 074°54'0 0.0
2017-Nov-10 22:28N 11°06' W 074°54'0 0.0
2017-Nov-10 21:58N 11°06' W 074°54'0 0.0
2017-Nov-10 21:28N 11°06' W 074°54'0 0.0
2017-Nov-10 20:58N 11°06' W 074°54'0 0.0
2017-Nov-10 20:25N 11°06' W 074°54'0 0.0
2017-Nov-10 19:58N 11°06' W 074°54'0 0.0
2017-Nov-10 19:28N 11°06' W 074°54'0 0.0
2017-Nov-10 18:58N 11°06' W 074°54'0 0.0
2017-Nov-10 18:28N 11°06' W 074°54'0 0.0
2017-Nov-10 17:58N 11°06' W 074°54'0 0.1
2017-Nov-10 17:28N 11°06' W 074°54'0 0.0
2017-Nov-10 16:58N 11°06' W 074°54'0 0.1
2017-Nov-10 16:28N 11°06' W 074°54'0 0.1
2017-Nov-10 15:58N 11°06' W 074°54'0 0.1
2017-Nov-10 15:22N 11°06' W 074°54'0 0.1
2017-Nov-10 14:40N 11°06' W 074°54'0 0.0
2017-Nov-10 14:28N 11°06' W 074°54'0 0.0
2017-Nov-10 13:58N 11°06' W 074°54'0 0.0
2017-Nov-10 13:19N 11°06' W 074°54'0 0.0
2017-Nov-10 12:58N 11°06' W 074°54'0 0.0
2017-Nov-10 12:28N 11°06' W 074°54'0 0.1
2017-Nov-10 11:49N 11°06' W 074°54'0 0.0
2017-Nov-10 11:19N 11°06' W 074°54'0 0.1
2017-Nov-10 10:58N 11°06' W 074°54'0 0.0
2017-Nov-09 22:55N 11°06' W 074°54'0 0.0
2017-Nov-09 22:28N 11°06' W 074°54'0 0.0
2017-Nov-09 21:58N 11°06' W 074°54'0 0.0
2017-Nov-09 21:28N 11°06' W 074°54'0 0.0
2017-Nov-09 20:58N 11°06' W 074°54'0 0.0
2017-Nov-09 20:28N 11°06' W 074°54'0 0.0
2017-Nov-09 19:55N 11°06' W 074°54'0 0.0
2017-Nov-09 19:28N 11°06' W 074°54'0 0.0
2017-Nov-09 18:58N 11°06' W 074°54'0 0.0
2017-Nov-09 18:28N 11°06' W 074°54'0 0.0
2017-Nov-09 17:58N 11°06' W 074°54'0 0.1
2017-Nov-09 17:28N 11°06' W 074°54'0 0.0
2017-Nov-09 16:58N 11°06' W 074°54'0 0.1
2017-Nov-09 16:28N 11°06' W 074°54'0 0.0
2017-Nov-09 15:58N 11°06' W 074°54'0 0.0
2017-Nov-09 15:28N 11°06' W 074°54'0 0.0
2017-Nov-09 14:58N 11°06' W 074°54'0 0.0
2017-Nov-09 14:28N 11°06' W 074°54'0 0.0
2017-Nov-09 13:58N 11°06' W 074°54'0 0.0
2017-Nov-09 13:28N 11°06' W 074°54'0 0.0
2017-Nov-09 12:58N 11°06' W 074°54'0 0.0
2017-Nov-09 12:28N 11°06' W 074°54'0 0.0
2017-Nov-09 11:58N 11°06' W 074°54'0 0.0
2017-Nov-08 23:04N 11°06' W 074°54'0 0.1
2017-Nov-08 22:55N 11°06' W 074°54'0 0.0
2017-Nov-08 22:28N 11°06' W 074°54'0 0.0
2017-Nov-08 21:58N 11°06' W 074°54'0 0.0
2017-Nov-08 21:28N 11°06' W 074°54'0 0.0
2017-Nov-08 20:58N 11°06' W 074°54'0 0.0
2017-Nov-08 20:28N 11°06' W 074°54'0 0.0
2017-Nov-08 19:58N 11°06' W 074°54'0 0.0
2017-Nov-08 19:28N 11°06' W 074°54'0 0.0
2017-Nov-08 18:58N 11°06' W 074°54'0 0.1
2017-Nov-08 18:28N 11°06' W 074°54'0 0.2
2017-Nov-08 17:58N 11°06' W 074°54'0 0.1
2017-Nov-08 17:28N 11°06' W 074°54'0 0.0
2017-Nov-08 16:55N 11°06' W 074°54'0 0.1
2017-Nov-08 16:25N 11°06' W 074°54'0 0.0
2017-Nov-08 15:46N 11°06' W 074°54'0 0.0
2017-Nov-08 15:22N 11°06' W 074°54'0 0.0
2017-Nov-08 14:58N 11°06' W 074°54'0 0.0
2017-Nov-08 14:28N 11°06' W 074°54'0 0.0
2017-Nov-08 13:49N 11°06' W 074°54'0 0.0
2017-Nov-08 13:25N 11°06' W 074°54'0 0.0
2017-Nov-08 12:58N 11°06' W 074°54'0 0.0
2017-Nov-08 12:22N 11°06' W 074°54'0 0.0
2017-Nov-08 11:58N 11°06' W 074°54'0 0.0
2017-Nov-07 21:10N 11°06' W 074°54'0 0.0
2017-Nov-07 20:01N 11°06' W 074°54'  
Track history (hours):
 
Tides and Currents Weather Stations Pressure Air Temp Water Temp Dewpoint Dewpoint Depression Visibility Wind Speed Wind Dir Waves Ship Positions

Strategic Endeavor

Last reported at 2017-Nov-17 19:26 UTC. Time now 2017-Nov-20 13:35 UTC.
Position N 11°14' W 074°47'.

Length 178 m; draft 8.6 m.

Type: Cargo ship. MMSI: 564180000.

Date/timePositionNaut miles runAvg speedWind from/ knotsBaromVisibWave heightAir tempDewpointWater temp
2017-Nov-17 19:26N 11°14' W 074°47'614.7
2017-Nov-17 19:00N 11°10' W 074°51'3 5.8
2017-Nov-17 18:30N 11°07' W 074°51'612.7
2017-Nov-17 18:00N 11°02' W 074°47'4 0.1
2017-Nov-16 03:21N 10°58' W 074°46'0 0.0
2017-Nov-15 19:42N 10°58' W 074°46'0 0.0
2017-Nov-15 10:39N 10°58' W 074°46'0 0.0
2017-Nov-15 10:27N 10°58' W 074°46'0 0.0
2017-Nov-14 21:54N 10°58' W 074°46'0 0.0
2017-Nov-14 21:24N 10°58' W 074°46'0 0.0
2017-Nov-14 20:54N 10°58' W 074°46'0 0.0
2017-Nov-14 20:30N 10°58' W 074°46'0 0.0
2017-Nov-14 20:00N 10°58' W 074°46'0 0.0
2017-Nov-14 19:30N 10°58' W 074°46'0 0.0
2017-Nov-14 19:00N 10°58' W 074°46'0 0.0
2017-Nov-14 18:30N 10°58' W 074°46'0 0.0
2017-Nov-14 18:00N 10°58' W 074°46'0 0.0
2017-Nov-14 17:30N 10°58' W 074°46'0 0.0
2017-Nov-14 17:00N 10°58' W 074°46'0 0.0
2017-Nov-14 16:30N 10°58' W 074°46'0 0.0
2017-Nov-14 16:00N 10°58' W 074°46'0 0.0
2017-Nov-14 15:30N 10°58' W 074°46'0 0.0
2017-Nov-14 15:00N 10°58' W 074°46'0 0.0
2017-Nov-14 14:30N 10°58' W 074°46'0 0.0
2017-Nov-14 14:00N 10°58' W 074°46'0 0.0
2017-Nov-14 13:30N 10°58' W 074°46'0 0.0
2017-Nov-14 13:00N 10°58' W 074°46'0 0.0
2017-Nov-14 12:30N 10°58' W 074°46'0 0.0
2017-Nov-14 12:00N 10°58' W 074°46'0 0.0
2017-Nov-14 11:30N 10°58' W 074°46'0 0.0
2017-Nov-14 11:00N 10°58' W 074°46'0 0.0
2017-Nov-14 10:30N 10°58' W 074°46'0 0.0
2017-Nov-14 10:00N 10°58' W 074°46'0 0.0
2017-Nov-14 09:30N 10°58' W 074°46'0 0.0
2017-Nov-14 08:06N 10°58' W 074°46'0 0.0
2017-Nov-14 08:00N 10°58' W 074°46'0 0.0
2017-Nov-14 07:30N 10°58' W 074°46'0 0.0
2017-Nov-14 07:00N 10°58' W 074°46'0 0.0
2017-Nov-14 06:30N 10°58' W 074°46'0 0.0
2017-Nov-14 06:00N 10°58' W 074°46'0 0.0
2017-Nov-14 05:30N 10°58' W 074°46'0 0.0
2017-Nov-14 05:00N 10°58' W 074°46'0 0.0
2017-Nov-14 04:30N 10°58' W 074°46'0 0.0
2017-Nov-14 04:00N 10°58' W 074°46'0 0.0
2017-Nov-14 03:30N 10°58' W 074°46'0 0.0
2017-Nov-14 03:00N 10°58' W 074°46'0 0.0
2017-Nov-14 02:30N 10°58' W 074°46'0 0.0
2017-Nov-14 02:00N 10°58' W 074°46'0 0.0
2017-Nov-14 01:30N 10°58' W 074°46'0 0.0
2017-Nov-14 01:00N 10°58' W 074°46'0 0.0
2017-Nov-14 00:30N 10°58' W 074°46'0 0.0
2017-Nov-14 00:00N 10°58' W 074°46'0 0.0
2017-Nov-13 23:30N 10°58' W 074°46'0 0.0
2017-Nov-13 23:00N 10°58' W 074°46'0 0.0
2017-Nov-13 22:30N 10°58' W 074°46'0 0.0
2017-Nov-13 22:00N 10°58' W 074°46'0 0.0
2017-Nov-13 02:00N 10°58' W 074°46'0 0.0
2017-Nov-13 01:30N 10°58' W 074°46'0 0.0
2017-Nov-13 01:00N 10°58' W 074°46'0 0.0
2017-Nov-13 00:30N 10°58' W 074°46'0 0.0
2017-Nov-13 00:00N 10°58' W 074°46'0 0.0
2017-Nov-12 23:30N 10°58' W 074°46'0 0.0
2017-Nov-12 23:00N 10°58' W 074°46'0 0.0
2017-Nov-12 22:30N 10°58' W 074°46'0 0.0
2017-Nov-12 22:00N 10°58' W 074°46'0 0.0
2017-Nov-12 21:30N 10°58' W 074°46'0 0.0
2017-Nov-12 21:00N 10°58' W 074°46'0 0.0
2017-Nov-12 20:27N 10°58' W 074°46'0 0.0
2017-Nov-12 20:00N 10°58' W 074°46'0 0.0
2017-Nov-12 19:30N 10°58' W 074°46'0 0.1
2017-Nov-12 19:00N 10°58' W 074°45'2 4.1
2017-Nov-12 18:30N 11°00' W 074°46'3 6.5
2017-Nov-12 18:00N 11°02' W 074°49'3 6.2
2017-Nov-12 17:30N 11°05' W 074°51'3 6.4
2017-Nov-12 17:00N 11°07' W 074°52'2 4.4
2017-Nov-12 16:30N 11°06' W 074°54'0 0.1
2017-Nov-12 15:58N 11°06' W 074°54'0 0.0
2017-Nov-12 15:28N 11°06' W 074°54'0 0.0
2017-Nov-12 14:55N 11°06' W 074°54'0 0.0
2017-Nov-12 14:28N 11°06' W 074°54'0 0.0
2017-Nov-12 13:58N 11°06' W 074°54'0 0.0
2017-Nov-12 13:28N 11°06' W 074°54'0 0.0
2017-Nov-12 12:58N 11°06' W 074°54'0 0.0
2017-Nov-12 12:25N 11°06' W 074°54'0 0.0
2017-Nov-12 11:58N 11°06' W 074°54'0 0.0
2017-Nov-11 23:01N 11°06' W 074°54'0 0.1
2017-Nov-11 22:52N 11°06' W 074°54'0 0.0
2017-Nov-11 22:28N 11°06' W 074°54'0 0.0
2017-Nov-11 19:55N 11°06' W 074°54'0 0.0
2017-Nov-11 19:28N 11°06' W 074°54'0 0.0
2017-Nov-11 18:58N 11°06' W 074°54'0 0.0
2017-Nov-11 18:28N 11°06' W 074°54'0 0.0
2017-Nov-11 17:55N 11°06' W 074°54'0 0.0
2017-Nov-11 17:28N 11°06' W 074°54'0 0.1
2017-Nov-11 16:58N 11°06' W 074°54'0 0.0
2017-Nov-11 16:22N 11°06' W 074°54'0 0.0
2017-Nov-11 15:43N 11°06' W 074°54'0 0.0
2017-Nov-11 13:40N 11°06' W 074°54'0 0.0
2017-Nov-11 13:28N 11°06' W 074°54'0 0.0
2017-Nov-11 12:58N 11°06' W 074°54'0 0.0
2017-Nov-11 12:28N 11°06' W 074°54'0 0.0
2017-Nov-10 23:10N 11°06' W 074°54'0 0.0
2017-Nov-10 22:58N 11°06' W 074°54'0 0.0
2017-Nov-10 22:28N 11°06' W 074°54'0 0.0
2017-Nov-10 21:58N 11°06' W 074°54'0 0.0
2017-Nov-10 21:28N 11°06' W 074°54'0 0.0
2017-Nov-10 20:58N 11°06' W 074°54'0 0.0
2017-Nov-10 20:25N 11°06' W 074°54'0 0.0
2017-Nov-10 19:58N 11°06' W 074°54'0 0.0
2017-Nov-10 19:28N 11°06' W 074°54'0 0.0
2017-Nov-10 18:58N 11°06' W 074°54'0 0.0
2017-Nov-10 18:28N 11°06' W 074°54'0 0.0
2017-Nov-10 17:58N 11°06' W 074°54'0 0.1
2017-Nov-10 17:28N 11°06' W 074°54'0 0.0
2017-Nov-10 16:58N 11°06' W 074°54'0 0.1
2017-Nov-10 16:28N 11°06' W 074°54'0 0.1
2017-Nov-10 15:58N 11°06' W 074°54'0 0.1
2017-Nov-10 15:22N 11°06' W 074°54'0 0.1
2017-Nov-10 14:40N 11°06' W 074°54'0 0.0
2017-Nov-10 14:28N 11°06' W 074°54'0 0.0
2017-Nov-10 13:58N 11°06' W 074°54'0 0.0
2017-Nov-10 13:19N 11°06' W 074°54'0 0.0
2017-Nov-10 12:58N 11°06' W 074°54'0 0.0
2017-Nov-10 12:28N 11°06' W 074°54'0 0.1
2017-Nov-10 11:49N 11°06' W 074°54'0 0.0
2017-Nov-10 11:19N 11°06' W 074°54'0 0.1
2017-Nov-10 10:58N 11°06' W 074°54'0 0.0
2017-Nov-09 22:55N 11°06' W 074°54'0 0.0
2017-Nov-09 22:28N 11°06' W 074°54'0 0.0
2017-Nov-09 21:58N 11°06' W 074°54'0 0.0
2017-Nov-09 21:28N 11°06' W 074°54'0 0.0
2017-Nov-09 20:58N 11°06' W 074°54'0 0.0
2017-Nov-09 20:28N 11°06' W 074°54'0 0.0
2017-Nov-09 19:55N 11°06' W 074°54'0 0.0
2017-Nov-09 19:28N 11°06' W 074°54'0 0.0
2017-Nov-09 18:58N 11°06' W 074°54'0 0.0
2017-Nov-09 18:28N 11°06' W 074°54'0 0.0
2017-Nov-09 17:58N 11°06' W 074°54'0 0.1
2017-Nov-09 17:28N 11°06' W 074°54'0 0.0
2017-Nov-09 16:58N 11°06' W 074°54'0 0.1
2017-Nov-09 16:28N 11°06' W 074°54'0 0.0
2017-Nov-09 15:58N 11°06' W 074°54'0 0.0
2017-Nov-09 15:28N 11°06' W 074°54'0 0.0
2017-Nov-09 14:58N 11°06' W 074°54'0 0.0
2017-Nov-09 14:28N 11°06' W 074°54'0 0.0
2017-Nov-09 13:58N 11°06' W 074°54'0 0.0
2017-Nov-09 13:28N 11°06' W 074°54'0 0.0
2017-Nov-09 12:58N 11°06' W 074°54'0 0.0
2017-Nov-09 12:28N 11°06' W 074°54'0 0.0
2017-Nov-09 11:58N 11°06' W 074°54'0 0.0
2017-Nov-08 23:04N 11°06' W 074°54'0 0.1
2017-Nov-08 22:55N 11°06' W 074°54'0 0.0
2017-Nov-08 22:28N 11°06' W 074°54'0 0.0
2017-Nov-08 21:58N 11°06' W 074°54'0 0.0
2017-Nov-08 21:28N 11°06' W 074°54'0 0.0
2017-Nov-08 20:58N 11°06' W 074°54'0 0.0
2017-Nov-08 20:28N 11°06' W 074°54'0 0.0
2017-Nov-08 19:58N 11°06' W 074°54'0 0.0
2017-Nov-08 19:28N 11°06' W 074°54'0 0.0
2017-Nov-08 18:58N 11°06' W 074°54'0 0.1
2017-Nov-08 18:28N 11°06' W 074°54'0 0.2
2017-Nov-08 17:58N 11°06' W 074°54'0 0.1
2017-Nov-08 17:28N 11°06' W 074°54'0 0.0
2017-Nov-08 16:55N 11°06' W 074°54'0 0.1
2017-Nov-08 16:25N 11°06' W 074°54'0 0.0
2017-Nov-08 15:46N 11°06' W 074°54'0 0.0
2017-Nov-08 15:22N 11°06' W 074°54'0 0.0
2017-Nov-08 14:58N 11°06' W 074°54'0 0.0
2017-Nov-08 14:28N 11°06' W 074°54'0 0.0
2017-Nov-08 13:49N 11°06' W 074°54'0 0.0
2017-Nov-08 13:25N 11°06' W 074°54'0 0.0
2017-Nov-08 12:58N 11°06' W 074°54'0 0.0
2017-Nov-08 12:22N 11°06' W 074°54'0 0.0
2017-Nov-08 11:58N 11°06' W 074°54'0 0.0
2017-Nov-07 21:10N 11°06' W 074°54'0 0.0
2017-Nov-07 20:01N 11°06' W 074°54'  

Dump ship's entire track history